Time;durP1;ratioP1;P1;durP2;ratioP2;P2;SDS_P1;SDS_P2;PMS_P1;PMS_P2;Temp;Humidity;BMP_temperature;BMP_pressure;BME280_temperature;BME280_humidity;BME280_pressure;Samples;Min_cycle;Max_cycle;Signal;HPM_P1;HPM_P2
2022/10/04 00:01:53;;;;;;;;;;;12.90;99.90;;;;;;5131676;27;19915;-66
2022/10/04 00:04:30;;;;;;;;;;;12.90;99.90;;;;;;5130653;27;20409;-67
2022/10/04 00:06:58;;;;;;;;;;;12.80;99.90;;;;;;5113287;27;19928;-68
2022/10/04 00:09:28;;;;;;;;;;;12.90;99.90;;;;;;5130645;27;19922;-67
2022/10/04 00:11:54;;;;;;;;;;;12.90;99.90;;;;;;5132425;27;19915;-65
2022/10/04 00:14:23;;;;;;;;;;;12.90;99.90;;;;;;5131725;27;19920;-66
2022/10/04 00:16:50;;;;;;;;;;;12.90;99.90;;;;;;5131320;27;19920;-66
2022/10/04 00:19:18;;;;;;;;;;;12.80;99.90;;;;;;5131139;27;19927;-66
2022/10/04 00:21:51;;;;;;;;;;;12.80;99.90;;;;;;5108394;28;19977;-66
2022/10/04 00:24:20;;;;;;;;;;;12.80;99.90;;;;;;5130027;27;19920;-66
2022/10/04 00:26:45;;;;;;;;;;;12.80;99.90;;;;;;5112265;27;19919;-65
2022/10/04 00:29:29;;;;;;;;;;;12.80;99.90;;;;;;5128270;27;19941;-66
2022/10/04 00:32:23;;;;;;;;;;;12.80;99.90;;;;;;5125380;27;19919;-66
2022/10/04 00:34:49;;;;;;;;;;;12.80;99.90;;;;;;5131459;27;19915;-67
2022/10/04 00:37:16;;;;;;;;;;;12.80;99.90;;;;;;5130563;27;19970;-65
2022/10/04 00:39:43;;;;;;;;;;;12.80;99.90;;;;;;5131202;27;19935;-67
2022/10/04 00:42:17;;;;;;;;;;;12.70;99.90;;;;;;5130914;27;19923;-66
2022/10/04 00:44:50;;;;;;;;;;;12.70;99.90;;;;;;5131951;27;19937;-67
2022/10/04 00:47:18;;;;;;;;;;;12.70;99.90;;;;;;5129391;27;19969;-67
2022/10/04 00:49:45;;;;;;;;;;;12.60;99.90;;;;;;5130907;27;19915;-66
2022/10/04 00:52:13;;;;;;;;;;;12.60;99.90;;;;;;5110402;28;19920;-65
2022/10/04 00:54:42;;;;;;;;;;;12.60;99.90;;;;;;5120128;28;19964;-67
2022/10/04 00:57:10;;;;;;;;;;;12.60;99.90;;;;;;5131296;28;19926;-66
2022/10/04 00:59:35;;;;;;;;;;;12.60;99.90;;;;;;5125100;28;20366;-66
2022/10/04 01:02:21;;;;;;;;;;;12.60;99.90;;;;;;5110147;28;19916;-67
2022/10/04 01:04:52;;;;;;;;;;;12.60;99.90;;;;;;5071667;28;19922;-66
2022/10/04 01:07:40;;;;;;;;;;;12.60;99.90;;;;;;5096565;28;19915;-66
2022/10/04 01:10:20;;;;;;;;;;;12.60;99.90;;;;;;5122748;27;20006;-68
2022/10/04 01:12:50;;;;;;;;;;;12.60;99.90;;;;;;5135839;27;19915;-66
2022/10/04 01:15:27;;;;;;;;;;;12.60;99.90;;;;;;5135217;27;19962;-66
2022/10/04 01:18:09;;;;;;;;;;;12.60;99.90;;;;;;5134874;27;19921;-67
2022/10/04 01:20:39;;;;;;;;;;;12.60;99.90;;;;;;5133720;27;19923;-66
2022/10/04 01:23:07;;;;;;;;;;;12.60;99.90;;;;;;5135528;27;19915;-68
2022/10/04 01:25:43;;;;;;;;;;;12.60;99.90;;;;;;5135840;27;19919;-66
2022/10/04 01:28:09;;;;;;;;;;;12.60;99.90;;;;;;5134847;27;19938;-66
2022/10/04 01:30:35;;;;;;;;;;;12.60;99.90;;;;;;5117211;27;19915;-66
2022/10/04 01:33:02;;;;;;;;;;;12.50;99.90;;;;;;5134617;27;20352;-66
2022/10/04 01:35:27;;;;;;;;;;;12.50;99.90;;;;;;5113622;28;19926;-66
2022/10/04 01:37:54;;;;;;;;;;;12.50;99.90;;;;;;5114834;28;20009;-66
2022/10/04 01:40:20;;;;;;;;;;;12.50;99.90;;;;;;5121993;27;19915;-66
2022/10/04 01:42:53;;;;;;;;;;;12.50;99.90;;;;;;5135258;27;20002;-66
2022/10/04 01:45:19;;;;;;;;;;;12.50;99.90;;;;;;5134622;27;19920;-67
2022/10/04 01:48:05;;;;;;;;;;;12.50;99.90;;;;;;5134139;27;20253;-66
2022/10/04 01:50:33;;;;;;;;;;;12.40;99.90;;;;;;5125866;27;19919;-67
2022/10/04 01:53:12;;;;;;;;;;;12.40;99.90;;;;;;5114619;28;20451;-66
2022/10/04 01:55:40;;;;;;;;;;;12.40;99.90;;;;;;5131273;27;19916;-67
2022/10/04 01:58:09;;;;;;;;;;;12.40;99.90;;;;;;5116502;27;19922;-68
2022/10/04 02:00:43;;;;;;;;;;;12.40;99.90;;;;;;5132332;27;19930;-66
2022/10/04 02:03:32;;;;;;;;;;;12.40;99.90;;;;;;5133774;27;19915;-68
2022/10/04 02:05:59;;;;;;;;;;;12.40;99.90;;;;;;5104808;27;20283;-66
2022/10/04 02:08:28;;;;;;;;;;;12.30;99.90;;;;;;5134440;27;20310;-66
2022/10/04 02:10:54;;;;;;;;;;;12.30;99.90;;;;;;5116102;27;19919;-67
2022/10/04 02:13:20;;;;;;;;;;;12.30;99.90;;;;;;5113463;28;19974;-66
2022/10/04 02:15:46;;;;;;;;;;;12.30;99.90;;;;;;5112889;28;19915;-66
2022/10/04 02:18:13;;;;;;;;;;;12.30;99.90;;;;;;5112402;28;19921;-66
2022/10/04 02:20:40;;;;;;;;;;;12.30;99.90;;;;;;5114193;27;19920;-66
2022/10/04 02:23:06;;;;;;;;;;;12.30;99.90;;;;;;5114233;28;19922;-65
2022/10/04 02:25:34;;;;;;;;;;;12.30;99.90;;;;;;5113606;28;19920;-66
2022/10/04 02:28:00;;;;;;;;;;;12.30;99.90;;;;;;5112831;27;19927;-66
2022/10/04 02:30:26;;;;;;;;;;;12.30;99.90;;;;;;5133784;27;20403;-66
2022/10/04 02:33:01;;;;;;;;;;;12.30;99.90;;;;;;5133472;27;19970;-66
2022/10/04 02:35:29;;;;;;;;;;;12.30;99.90;;;;;;5132900;27;19927;-66
2022/10/04 02:38:00;;;;;;;;;;;12.30;99.90;;;;;;5134252;27;19919;-66
2022/10/04 02:40:28;;;;;;;;;;;12.30;99.90;;;;;;5121961;27;19919;-66
2022/10/04 02:43:00;;;;;;;;;;;12.30;99.90;;;;;;5134188;27;19976;-66
2022/10/04 02:45:29;;;;;;;;;;;12.30;99.90;;;;;;5129250;27;20000;-65
2022/10/04 02:47:58;;;;;;;;;;;12.30;99.90;;;;;;5112166;28;20450;-66
2022/10/04 02:50:34;;;;;;;;;;;12.20;99.90;;;;;;5112043;28;19920;-66
2022/10/04 02:53:10;;;;;;;;;;;12.10;99.90;;;;;;5127185;27;19942;-67
2022/10/04 02:55:36;;;;;;;;;;;12.10;99.90;;;;;;5133900;27;19922;-66
2022/10/04 02:58:08;;;;;;;;;;;12.00;99.90;;;;;;5133828;27;19922;-66
2022/10/04 03:00:43;;;;;;;;;;;12.00;99.90;;;;;;5133361;27;19967;-67
2022/10/04 03:03:09;;;;;;;;;;;12.00;99.90;;;;;;5133019;27;19919;-66
2022/10/04 03:05:34;;;;;;;;;;;11.90;99.90;;;;;;5130482;27;20031;-67
2022/10/04 03:08:00;;;;;;;;;;;11.90;99.90;;;;;;5115899;27;19916;-66
2022/10/04 03:10:26;;;;;;;;;;;11.90;99.90;;;;;;5099999;28;19961;-66
2022/10/04 03:12:52;;;;;;;;;;;11.90;99.90;;;;;;5112997;28;20349;-66
2022/10/04 03:15:18;;;;;;;;;;;11.80;99.90;;;;;;5112426;28;20356;-66
2022/10/04 03:17:43;;;;;;;;;;;11.80;99.90;;;;;;5111989;28;19927;-66
2022/10/04 03:20:13;;;;;;;;;;;11.80;99.90;;;;;;5122295;27;20002;-66
2022/10/04 03:22:40;;;;;;;;;;;11.70;99.90;;;;;;5133374;27;20060;-66
2022/10/04 03:25:10;;;;;;;;;;;11.70;99.90;;;;;;5115259;27;19915;-67
2022/10/04 03:27:36;;;;;;;;;;;11.70;99.90;;;;;;5121088;27;19920;-65
2022/10/04 03:30:02;;;;;;;;;;;11.70;99.90;;;;;;5112848;28;19939;-66
2022/10/04 03:32:29;;;;;;;;;;;11.70;99.90;;;;;;5111024;28;20280;-66
2022/10/04 03:34:57;;;;;;;;;;;11.70;99.90;;;;;;5141890;27;20395;-66
2022/10/04 03:37:24;;;;;;;;;;;11.60;99.90;;;;;;5152583;27;20410;-67
2022/10/04 03:39:51;;;;;;;;;;;11.60;99.90;;;;;;5135219;27;19919;-67
2022/10/04 03:42:18;;;;;;;;;;;11.60;99.90;;;;;;5153351;27;19940;-68
2022/10/04 03:44:45;;;;;;;;;;;11.70;99.90;;;;;;5153696;27;19932;-66
2022/10/04 03:47:13;;;;;;;;;;;11.60;99.90;;;;;;5098136;27;20383;-67
2022/10/04 03:49:39;;;;;;;;;;;11.60;99.90;;;;;;5093394;28;19963;-67
2022/10/04 03:52:06;;;;;;;;;;;11.60;99.90;;;;;;5111982;28;19923;-66
2022/10/04 03:54:32;;;;;;;;;;;11.60;99.90;;;;;;5111880;28;19920;-67
2022/10/04 03:56:58;;;;;;;;;;;11.60;99.90;;;;;;5112248;28;19970;-67
2022/10/04 03:59:25;;;;;;;;;;;11.60;99.90;;;;;;5111551;28;20357;-67
2022/10/04 04:02:10;;;;;;;;;;;11.60;99.90;;;;;;5111316;28;19916;-67
2022/10/04 04:04:41;;;;;;;;;;;11.60;99.90;;;;;;5110992;28;19916;-67
2022/10/04 04:07:16;;;;;;;;;;;11.60;99.90;;;;;;5093832;28;19916;-67
2022/10/04 04:09:42;;;;;;;;;;;11.50;99.90;;;;;;5111623;28;20357;-67
2022/10/04 04:12:17;;;;;;;;;;;11.50;99.90;;;;;;5129335;27;19922;-67
2022/10/04 04:14:43;;;;;;;;;;;11.40;99.90;;;;;;5132425;27;19919;-67
2022/10/04 04:17:27;;;;;;;;;;;11.40;99.90;;;;;;5131494;27;19915;-67
2022/10/04 04:19:56;;;;;;;;;;;11.40;99.90;;;;;;5098003;28;20349;-68
2022/10/04 04:22:21;;;;;;;;;;;11.40;99.90;;;;;;5110860;28;19916;-67
2022/10/04 04:24:49;;;;;;;;;;;11.40;99.90;;;;;;5120751;27;19937;-66
2022/10/04 04:27:16;;;;;;;;;;;11.40;99.90;;;;;;5131807;27;19926;-69
2022/10/04 04:29:47;;;;;;;;;;;11.40;99.90;;;;;;5130602;27;19919;-66
2022/10/04 04:32:22;;;;;;;;;;;11.40;99.90;;;;;;5131474;27;20425;-67
2022/10/04 04:34:52;;;;;;;;;;;11.40;99.90;;;;;;5129674;27;20281;-67
2022/10/04 04:37:18;;;;;;;;;;;11.30;99.90;;;;;;5113387;27;20105;-68
2022/10/04 04:39:48;;;;;;;;;;;11.30;99.90;;;;;;5130866;27;19980;-66
2022/10/04 04:42:20;;;;;;;;;;;11.30;99.90;;;;;;5131997;27;19919;-67
2022/10/04 04:44:48;;;;;;;;;;;11.20;99.90;;;;;;5131819;27;20005;-66
2022/10/04 04:47:21;;;;;;;;;;;11.20;99.90;;;;;;5130706;27;20012;-68
2022/10/04 04:49:46;;;;;;;;;;;11.10;99.90;;;;;;5110117;27;19924;-67
2022/10/04 04:52:15;;;;;;;;;;;11.10;99.90;;;;;;5131696;27;19942;-66
2022/10/04 04:54:42;;;;;;;;;;;11.00;99.90;;;;;;5113493;28;19919;-67
2022/10/04 04:57:08;;;;;;;;;;;11.10;99.90;;;;;;5132275;28;19922;-67
2022/10/04 04:59:35;;;;;;;;;;;11.00;99.90;;;;;;5131241;28;19915;-68
2022/10/04 05:02:02;;;;;;;;;;;11.00;99.90;;;;;;5112973;28;20002;-67
2022/10/04 05:04:27;;;;;;;;;;;11.00;99.90;;;;;;5109501;28;20450;-66
2022/10/04 05:07:13;;;;;;;;;;;11.00;99.90;;;;;;5130976;28;19915;-67
2022/10/04 05:09:39;;;;;;;;;;;11.00;99.90;;;;;;5130366;28;20035;-67
2022/10/04 05:12:07;;;;;;;;;;;10.90;99.90;;;;;;5109698;28;20014;-67
2022/10/04 05:14:37;;;;;;;;;;;11.10;99.90;;;;;;5119018;28;20325;-67
2022/10/04 05:17:02;;;;;;;;;;;10.90;99.90;;;;;;5130828;28;19919;-66
2022/10/04 05:19:31;;;;;;;;;;;10.90;99.90;;;;;;5130455;28;19919;-67
2022/10/04 05:21:57;;;;;;;;;;;10.80;99.90;;;;;;5094305;28;19964;-67
2022/10/04 05:24:27;;;;;;;;;;;10.90;99.90;;;;;;5124262;27;19936;-69
2022/10/04 05:26:55;;;;;;;;;;;10.80;99.90;;;;;;5152288;27;19937;-67
2022/10/04 05:29:23;;;;;;;;;;;10.70;99.90;;;;;;5141175;27;19921;-67
2022/10/04 05:31:53;;;;;;;;;;;10.70;99.90;;;;;;5123763;28;19923;-68
2022/10/04 05:34:26;;;;;;;;;;;10.70;99.90;;;;;;5104905;27;19920;-67
2022/10/04 05:37:10;;;;;;;;;;;10.70;99.90;;;;;;5093085;28;19920;-67
2022/10/04 05:39:36;;;;;;;;;;;10.70;99.90;;;;;;5110121;28;19973;-68
2022/10/04 05:42:11;;;;;;;;;;;10.70;99.90;;;;;;5111077;28;19967;-68
2022/10/04 05:44:53;;;;;;;;;;;10.70;99.90;;;;;;5110193;28;19985;-69
2022/10/04 05:47:26;;;;;;;;;;;10.70;99.90;;;;;;5109675;28;20299;-67
2022/10/04 05:49:54;;;;;;;;;;;10.70;99.90;;;;;;5111692;28;20007;-66
2022/10/04 05:52:32;;;;;;;;;;;10.60;99.90;;;;;;5127662;27;19965;-68
2022/10/04 05:55:16;;;;;;;;;;;10.60;99.90;;;;;;5135387;27;20014;-66
2022/10/04 05:57:42;;;;;;;;;;;10.60;99.90;;;;;;5134317;27;20010;-67
2022/10/04 06:00:15;;;;;;;;;;;10.60;99.90;;;;;;5132994;27;20064;-67
2022/10/04 06:02:41;;;;;;;;;;;10.60;99.90;;;;;;5115866;27;20348;-66
2022/10/04 06:05:26;;;;;;;;;;;10.50;99.90;;;;;;5125379;27;19922;-68
2022/10/04 06:07:51;;;;;;;;;;;10.40;99.90;;;;;;5134769;27;20375;-68
2022/10/04 06:10:46;;;;;;;;;;;10.40;99.90;;;;;;5134224;27;19916;-67
2022/10/04 06:13:31;;;;;;;;;;;10.40;99.90;;;;;;5043784;27;19967;-66
2022/10/04 06:16:13;;;;;;;;;;;10.40;99.90;;;;;;5134403;27;19972;-68
2022/10/04 06:18:39;;;;;;;;;;;10.40;99.90;;;;;;5133102;27;19915;-66
2022/10/04 06:21:24;;;;;;;;;;;10.50;99.90;;;;;;5133899;27;19919;-67
2022/10/04 06:23:52;;;;;;;;;;;10.50;99.90;;;;;;5118127;27;19916;-66
2022/10/04 06:26:20;;;;;;;;;;;10.50;99.90;;;;;;5130328;27;20011;-68
2022/10/04 06:28:48;;;;;;;;;;;10.50;99.90;;;;;;5118779;27;19923;-66
2022/10/04 06:31:29;;;;;;;;;;;10.40;99.90;;;;;;5112681;28;20334;-66
2022/10/04 06:33:54;;;;;;;;;;;10.40;99.90;;;;;;5126272;27;19942;-66
2022/10/04 06:36:20;;;;;;;;;;;10.50;99.90;;;;;;5133708;27;20371;-67
2022/10/04 06:38:56;;;;;;;;;;;10.50;99.90;;;;;;5132368;27;19919;-67
2022/10/04 06:41:28;;;;;;;;;;;10.50;99.90;;;;;;5148181;27;19922;-67
2022/10/04 06:44:15;;;;;;;;;;;10.50;99.90;;;;;;5134303;27;19919;-63
2022/10/04 06:46:47;;;;;;;;;;;10.50;99.90;;;;;;5093916;28;20272;-65
2022/10/04 06:49:13;;;;;;;;;;;10.50;99.90;;;;;;5096442;28;20598;-62
2022/10/04 06:51:50;;;;;;;;;;;10.60;99.90;;;;;;5112628;28;19916;-62
2022/10/04 06:54:34;;;;;;;;;;;10.70;99.90;;;;;;5118771;27;19919;-61
2022/10/04 06:57:00;;;;;;;;;;;10.90;99.90;;;;;;5133755;27;20444;-67
2022/10/04 06:59:55;;;;;;;;;;;10.90;99.90;;;;;;5111431;27;19979;-68
2022/10/04 07:02:23;;;;;;;;;;;11.00;99.90;;;;;;5119828;27;19922;-67
2022/10/04 07:05:01;;;;;;;;;;;10.90;99.90;;;;;;5131317;27;20271;-67
2022/10/04 07:07:35;;;;;;;;;;;10.80;99.90;;;;;;5140399;27;20272;-67
2022/10/04 07:10:13;;;;;;;;;;;10.90;99.90;;;;;;5151292;27;19915;-66
2022/10/04 07:12:39;;;;;;;;;;;10.80;99.90;;;;;;5151448;27;19922;-67
2022/10/04 07:15:12;;;;;;;;;;;10.80;99.90;;;;;;5151766;27;19923;-67
2022/10/04 07:17:41;;;;;;;;;;;10.90;99.90;;;;;;5145461;27;19915;-66
2022/10/04 07:20:14;;;;;;;;;;;11.00;99.90;;;;;;5140800;27;19918;-67
2022/10/04 07:23:05;;;;;;;;;;;11.00;99.90;;;;;;5129983;27;19916;-69
2022/10/04 07:25:34;;;;;;;;;;;11.10;99.90;;;;;;5121311;27;19935;-69
2022/10/04 07:31:02;;;;;;;;;;;11.40;99.90;;;;;;5146060;27;20440;-66
2022/10/04 07:33:30;;;;;;;;;;;11.50;99.90;;;;;;5132859;27;19916;-66
2022/10/04 07:36:07;;;;;;;;;;;11.70;99.90;;;;;;5100666;28;19970;-66
2022/10/04 07:38:36;;;;;;;;;;;11.80;99.90;;;;;;5114178;27;19949;-68
2022/10/04 07:41:08;;;;;;;;;;;11.90;99.90;;;;;;5132592;27;19968;-66
2022/10/04 07:43:45;;;;;;;;;;;12.00;99.90;;;;;;5132591;27;20006;-68
2022/10/04 07:46:16;;;;;;;;;;;12.00;99.90;;;;;;5131475;27;19919;-67
2022/10/04 07:48:42;;;;;;;;;;;12.10;99.90;;;;;;5132405;27;20741;-66
2022/10/04 07:51:08;;;;;;;;;;;12.20;99.90;;;;;;5138486;27;19915;-66
2022/10/04 07:53:42;;;;;;;;;;;12.20;99.90;;;;;;5147648;27;19955;-69
2022/10/04 07:56:12;;;;;;;;;;;12.20;99.90;;;;;;5149332;27;19923;-67
2022/10/04 07:58:47;;;;;;;;;;;12.30;99.90;;;;;;5139037;27;20006;-69
2022/10/04 08:01:24;;;;;;;;;;;12.30;99.90;;;;;;5147542;27;20002;-69
2022/10/04 08:04:04;;;;;;;;;;;12.30;99.90;;;;;;5136246;27;19916;-68
2022/10/04 08:06:32;;;;;;;;;;;12.30;99.90;;;;;;5147541;27;19922;-67
2022/10/04 08:09:03;;;;;;;;;;;12.30;99.90;;;;;;5147096;27;20073;-68
2022/10/04 08:11:48;;;;;;;;;;;12.40;99.90;;;;;;5113696;27;19979;-68
2022/10/04 08:14:26;;;;;;;;;;;12.40;99.90;;;;;;5142679;27;19919;-67
2022/10/04 08:16:54;;;;;;;;;;;12.50;99.90;;;;;;5136033;27;19915;-68
2022/10/04 08:19:26;;;;;;;;;;;12.60;99.90;;;;;;5139103;27;20047;-67
2022/10/04 08:22:04;;;;;;;;;;;12.60;99.90;;;;;;5145979;27;20391;-68
2022/10/04 08:24:30;;;;;;;;;;;12.70;99.90;;;;;;5144979;27;19919;-68
2022/10/04 08:27:15;;;;;;;;;;;12.80;99.90;;;;;;5148331;27;20007;-67
2022/10/04 08:29:57;;;;;;;;;;;12.90;99.90;;;;;;5149044;27;19978;-69
2022/10/04 08:32:42;;;;;;;;;;;13.00;99.90;;;;;;5146987;27;20025;-67
2022/10/04 08:35:11;;;;;;;;;;;13.10;99.90;;;;;;5131298;27;20378;-73
2022/10/04 08:37:43;;;;;;;;;;;13.10;99.90;;;;;;5131385;27;19915;-67
2022/10/04 08:40:26;;;;;;;;;;;13.20;99.90;;;;;;5129119;27;19963;-67
2022/10/04 08:43:07;;;;;;;;;;;13.30;99.90;;;;;;5130198;27;19934;-69
2022/10/04 08:45:55;;;;;;;;;;;13.30;99.90;;;;;;5118496;27;19915;-69
2022/10/04 08:48:23;;;;;;;;;;;13.30;99.90;;;;;;5129352;27;20396;-68
2022/10/04 08:51:21;;;;;;;;;;;13.20;99.90;;;;;;5129267;27;19922;-67
2022/10/04 08:53:47;;;;;;;;;;;13.20;99.90;;;;;;5056917;28;19973;-67
2022/10/04 08:56:13;;;;;;;;;;;13.20;99.90;;;;;;5127526;28;19962;-67
2022/10/04 08:58:59;;;;;;;;;;;13.30;99.90;;;;;;5131233;28;19915;-67
2022/10/04 09:01:31;;;;;;;;;;;13.40;99.90;;;;;;5111703;28;19927;-67
2022/10/04 09:04:00;;;;;;;;;;;13.50;99.90;;;;;;5129906;28;19916;-67
2022/10/04 09:06:32;;;;;;;;;;;13.50;99.90;;;;;;5127665;28;19922;-67
2022/10/04 09:09:00;;;;;;;;;;;13.50;99.90;;;;;;5123375;28;20275;-68
2022/10/04 09:11:45;;;;;;;;;;;13.60;99.90;;;;;;5130671;28;19923;-67
2022/10/04 09:14:30;;;;;;;;;;;13.60;99.90;;;;;;5130538;28;19915;-68
2022/10/04 09:17:05;;;;;;;;;;;13.70;99.90;;;;;;5129011;28;19988;-67
2022/10/04 09:19:32;;;;;;;;;;;13.80;99.90;;;;;;5098945;28;19919;-67
2022/10/04 09:22:18;;;;;;;;;;;13.80;99.90;;;;;;5128615;28;20024;-67
2022/10/04 09:25:03;;;;;;;;;;;13.90;99.90;;;;;;5131341;27;20328;-69
2022/10/04 09:27:33;;;;;;;;;;;13.90;99.90;;;;;;5134723;27;19919;-68
2022/10/04 09:30:17;;;;;;;;;;;13.90;99.90;;;;;;5133456;27;19915;-67
2022/10/04 09:32:58;;;;;;;;;;;14.00;99.90;;;;;;5115645;27;19919;-67
2022/10/04 09:35:23;;;;;;;;;;;14.00;99.90;;;;;;5125860;27;19923;-67
2022/10/04 09:38:02;;;;;;;;;;;14.00;99.90;;;;;;5134260;27;20448;-69
2022/10/04 09:40:42;;;;;;;;;;;14.00;99.90;;;;;;5134849;27;19915;-67
2022/10/04 09:43:27;;;;;;;;;;;14.10;99.90;;;;;;5133670;27;20073;-70
2022/10/04 09:46:02;;;;;;;;;;;14.20;99.90;;;;;;5131800;27;19919;-69
2022/10/04 09:48:31;;;;;;;;;;;14.20;99.90;;;;;;5138416;27;19926;-69
2022/10/04 09:51:00;;;;;;;;;;;14.30;99.90;;;;;;5139715;27;19942;-69
2022/10/04 09:53:43;;;;;;;;;;;14.40;99.90;;;;;;5151280;27;20317;-68
2022/10/04 09:56:11;;;;;;;;;;;14.40;99.90;;;;;;5151889;27;19914;-70
2022/10/04 09:58:50;;;;;;;;;;;14.60;99.90;;;;;;5151678;27;19914;-70
2022/10/04 10:01:24;;;;;;;;;;;14.60;99.90;;;;;;5148166;27;20023;-69
2022/10/04 10:03:57;;;;;;;;;;;14.70;99.90;;;;;;5152400;27;20271;-71
2022/10/04 10:06:25;;;;;;;;;;;14.70;99.90;;;;;;5151776;27;19919;-69
2022/10/04 10:08:51;;;;;;;;;;;14.80;99.90;;;;;;5128309;27;19918;-70
2022/10/04 10:14:16;;;;;;;;;;;14.90;99.90;;;;;;5137177;27;19964;-70
2022/10/04 10:17:00;;;;;;;;;;;15.00;99.90;;;;;;5130548;27;20480;-70
2022/10/04 10:19:37;;;;;;;;;;;15.00;99.90;;;;;;5146918;27;19930;-69
2022/10/04 10:22:30;;;;;;;;;;;15.00;99.90;;;;;;5125321;27;19915;-68
2022/10/04 10:25:03;;;;;;;;;;;15.10;99.90;;;;;;5138791;27;19923;-70
2022/10/04 10:27:47;;;;;;;;;;;15.20;99.90;;;;;;5145546;27;20027;-68
2022/10/04 10:30:14;;;;;;;;;;;15.30;99.90;;;;;;5138443;27;20068;-69
2022/10/04 10:32:58;;;;;;;;;;;15.40;99.90;;;;;;5148899;27;19919;-68
2022/10/04 10:35:33;;;;;;;;;;;15.60;99.90;;;;;;5142025;27;19927;-68
2022/10/04 10:38:17;;;;;;;;;;;15.70;99.90;;;;;;5140859;27;19919;-68
2022/10/04 10:40:44;;;;;;;;;;;15.70;99.90;;;;;;5145058;27;19919;-69
2022/10/04 10:43:49;;;;;;;;;;;15.80;99.90;;;;;;5131408;27;19973;-68
2022/10/04 10:46:23;;;;;;;;;;;15.80;99.90;;;;;;5017948;28;20011;-69
2022/10/04 10:49:07;;;;;;;;;;;15.80;99.90;;;;;;5022459;28;19971;-68
2022/10/04 10:51:54;;;;;;;;;;;15.90;99.90;;;;;;5095845;27;20371;-69
2022/10/04 10:54:35;;;;;;;;;;;16.00;99.90;;;;;;5143992;27;19954;-68
2022/10/04 10:57:13;;;;;;;;;;;16.10;99.90;;;;;;5142636;27;19915;-68
2022/10/04 11:00:08;;;;;;;;;;;16.20;99.90;;;;;;5142712;27;19931;-69
2022/10/04 11:02:52;;;;;;;;;;;16.20;99.90;;;;;;5122198;27;19934;-68
2022/10/04 11:05:47;;;;;;;;;;;16.40;99.90;;;;;;5148974;27;19931;-68
2022/10/04 11:08:28;;;;;;;;;;;16.50;99.90;;;;;;5145644;27;20689;-68
2022/10/04 11:11:12;;;;;;;;;;;16.80;99.90;;;;;;5133571;27;20259;-69
2022/10/04 11:13:50;;;;;;;;;;;17.00;99.90;;;;;;5133555;27;19915;-68
2022/10/04 11:16:33;;;;;;;;;;;17.30;99.90;;;;;;5130972;27;19921;-67
2022/10/04 11:19:02;;;;;;;;;;;17.60;99.90;;;;;;5123100;27;19919;-70
2022/10/04 11:21:53;;;;;;;;;;;18.00;99.90;;;;;;5132681;27;20287;-67
2022/10/04 11:24:41;;;;;;;;;;;18.20;99.90;;;;;;5100006;27;19919;-68
2022/10/04 11:27:27;;;;;;;;;;;18.50;99.90;;;;;;5132382;27;19919;-67
2022/10/04 11:30:07;;;;;;;;;;;18.70;99.90;;;;;;5133126;27;19915;-69
2022/10/04 11:32:51;;;;;;;;;;;18.90;99.90;;;;;;5131730;27;19926;-68
2022/10/04 11:35:35;;;;;;;;;;;19.10;99.90;;;;;;5131347;27;20127;-69
2022/10/04 11:38:21;;;;;;;;;;;19.20;98.80;;;;;;5113452;27;19915;-69
2022/10/04 11:40:56;;;;;;;;;;;19.50;99.90;;;;;;5130600;27;19919;-68
2022/10/04 11:43:37;;;;;;;;;;;19.80;97.80;;;;;;5132414;27;19926;-68
2022/10/04 11:46:13;;;;;;;;;;;19.90;95.90;;;;;;5118406;27;19919;-70
2022/10/04 11:48:41;;;;;;;;;;;19.90;96.90;;;;;;5132007;27;20309;-69
2022/10/04 11:51:12;;;;;;;;;;;20.00;97.80;;;;;;5130596;27;20380;-68
2022/10/04 11:53:53;;;;;;;;;;;20.10;93.10;;;;;;5141623;27;19919;-68
2022/10/04 11:56:39;;;;;;;;;;;20.20;93.00;;;;;;5132914;27;19915;-68
2022/10/04 11:59:19;;;;;;;;;;;20.30;89.00;;;;;;5131187;27;19916;-67
2022/10/04 12:02:03;;;;;;;;;;;20.20;90.00;;;;;;5130532;27;19927;-67
2022/10/04 12:04:50;;;;;;;;;;;20.20;88.90;;;;;;5131085;27;19922;-68
2022/10/04 12:07:19;;;;;;;;;;;20.30;89.70;;;;;;5095783;28;19927;-66
2022/10/04 12:09:52;;;;;;;;;;;20.50;84.10;;;;;;5124746;27;20344;-67
2022/10/04 12:12:36;;;;;;;;;;;20.50;83.30;;;;;;5131029;27;19923;-66
2022/10/04 12:15:21;;;;;;;;;;;20.60;86.80;;;;;;5131102;27;19968;-68
2022/10/04 12:18:05;;;;;;;;;;;20.70;83.20;;;;;;5130508;27;19915;-66
2022/10/04 12:20:31;;;;;;;;;;;20.40;84.60;;;;;;5130530;27;19965;-65
2022/10/04 12:23:15;;;;;;;;;;;20.40;83.80;;;;;;5129641;27;20403;-66
2022/10/04 12:25:47;;;;;;;;;;;20.30;84.70;;;;;;5126131;27;19915;-66
2022/10/04 12:28:25;;;;;;;;;;;20.60;84.90;;;;;;5118843;27;20403;-66
2022/10/04 12:31:01;;;;;;;;;;;20.70;84.60;;;;;;5130218;27;19915;-66
2022/10/04 12:33:48;;;;;;;;;;;20.70;82.20;;;;;;5130651;27;19943;-66
2022/10/04 12:36:35;;;;;;;;;;;20.70;81.70;;;;;;5091008;28;20272;-66
2022/10/04 12:39:30;;;;;;;;;;;20.70;83.40;;;;;;5126918;27;19959;-68
2022/10/04 12:42:14;;;;;;;;;;;21.00;80.00;;;;;;5112555;27;20303;-67
2022/10/04 12:44:59;;;;;;;;;;;21.10;79.40;;;;;;5131096;27;19919;-67
2022/10/04 12:47:30;;;;;;;;;;;21.20;80.10;;;;;;5100158;27;19927;-67
2022/10/04 12:50:19;;;;;;;;;;;21.30;81.80;;;;;;5129451;27;19988;-66
2022/10/04 12:52:52;;;;;;;;;;;21.40;78.30;;;;;;5130301;27;19997;-66
2022/10/04 12:55:18;;;;;;;;;;;21.30;79.10;;;;;;5141852;27;19920;-66
2022/10/04 12:57:49;;;;;;;;;;;21.00;78.50;;;;;;5130621;28;19920;-66
2022/10/04 13:00:19;;;;;;;;;;;20.70;80.90;;;;;;5126070;27;19919;-65
2022/10/04 13:02:56;;;;;;;;;;;20.50;83.20;;;;;;5117400;28;20049;-68
2022/10/04 13:05:30;;;;;;;;;;;20.80;83.90;;;;;;5121669;28;19969;-70
2022/10/04 13:08:08;;;;;;;;;;;21.30;78.80;;;;;;5122243;27;19915;-68
2022/10/04 13:10:52;;;;;;;;;;;21.50;76.60;;;;;;5128990;27;19965;-68
2022/10/04 13:13:30;;;;;;;;;;;21.60;75.10;;;;;;5111187;27;19937;-66
2022/10/04 13:16:09;;;;;;;;;;;21.50;70.80;;;;;;5119426;27;20404;-69
2022/10/04 13:18:53;;;;;;;;;;;21.60;72.90;;;;;;5130847;28;20618;-67
2022/10/04 13:21:37;;;;;;;;;;;22.10;73.60;;;;;;5129571;28;20037;-67
2022/10/04 13:24:08;;;;;;;;;;;22.20;70.80;;;;;;5143411;27;19952;-68
2022/10/04 13:26:53;;;;;;;;;;;22.10;68.50;;;;;;5130849;27;20280;-66
2022/10/04 13:29:30;;;;;;;;;;;22.20;70.30;;;;;;5129933;28;19919;-68
2022/10/04 13:32:05;;;;;;;;;;;22.50;70.10;;;;;;5125725;28;19926;-66
2022/10/04 13:34:30;;;;;;;;;;;22.60;69.20;;;;;;5129618;28;20053;-67
2022/10/04 13:37:34;;;;;;;;;;;22.60;70.70;;;;;;5125636;28;20400;-67
2022/10/04 13:40:12;;;;;;;;;;;22.30;69.30;;;;;;5065574;28;19921;-66
2022/10/04 13:42:57;;;;;;;;;;;21.40;70.90;;;;;;5066774;28;20039;-67
2022/10/04 13:45:33;;;;;;;;;;;20.70;74.10;;;;;;5104795;28;19923;-66
2022/10/04 13:48:04;;;;;;;;;;;20.00;76.60;;;;;;5126223;28;19922;-66
2022/10/04 13:50:36;;;;;;;;;;;19.60;78.70;;;;;;5120256;27;19919;-65
2022/10/04 13:58:56;;;;;;;;;;;19.10;80.30;;;;;;5121070;28;19923;-68
2022/10/04 14:01:38;;;;;;;;;;;19.20;83.20;;;;;;5128683;28;19942;-66
2022/10/04 14:04:10;;;;;;;;;;;19.60;80.90;;;;;;5129463;28;20021;-65
2022/10/04 14:06:54;;;;;;;;;;;19.90;79.50;;;;;;5106763;28;19931;-66
2022/10/04 14:09:19;;;;;;;;;;;20.20;79.00;;;;;;5109164;27;19915;-66
2022/10/04 14:11:51;;;;;;;;;;;20.40;75.40;;;;;;5130198;27;19919;-66
2022/10/04 14:14:32;;;;;;;;;;;20.30;74.80;;;;;;5134098;27;20249;-67
2022/10/04 14:17:08;;;;;;;;;;;20.20;74.50;;;;;;5102941;28;19919;-67
2022/10/04 14:19:56;;;;;;;;;;;20.20;76.20;;;;;;5100829;27;20022;-67
2022/10/04 14:22:25;;;;;;;;;;;20.20;77.30;;;;;;5133775;27;19923;-66
2022/10/04 14:25:09;;;;;;;;;;;20.40;74.20;;;;;;5114721;27;20368;-68
2022/10/04 14:27:42;;;;;;;;;;;20.60;74.10;;;;;;5123459;27;20002;-69
2022/10/04 14:30:08;;;;;;;;;;;21.40;74.50;;;;;;5122980;27;19920;-68
2022/10/04 14:32:33;;;;;;;;;;;22.10;71.10;;;;;;5132034;27;19926;-68
2022/10/04 14:35:10;;;;;;;;;;;22.60;67.60;;;;;;5132860;27;20356;-70
2022/10/04 14:37:44;;;;;;;;;;;23.00;68.40;;;;;;5132454;27;19919;-68
2022/10/04 14:40:49;;;;;;;;;;;23.50;64.80;;;;;;5132828;27;19926;-68
2022/10/04 14:43:42;;;;;;;;;;;23.90;64.10;;;;;;5044186;28;19929;-69
2022/10/04 14:46:22;;;;;;;;;;;24.50;64.40;;;;;;5043612;28;20090;-66
2022/10/04 14:49:13;;;;;;;;;;;25.30;61.30;;;;;;5112490;27;19920;-65
2022/10/04 14:51:45;;;;;;;;;;;25.90;61.10;;;;;;5132578;27;19915;-67
2022/10/04 14:54:27;;;;;;;;;;;26.20;59.60;;;;;;5133385;27;19956;-69
2022/10/04 14:57:02;;;;;;;;;;;26.10;61.10;;;;;;5133106;27;20356;-67
2022/10/04 14:59:38;;;;;;;;;;;26.10;61.20;;;;;;5126926;27;19922;-67
2022/10/04 15:02:23;;;;;;;;;;;26.00;57.50;;;;;;5114681;27;20436;-67
2022/10/04 15:05:07;;;;;;;;;;;25.70;58.50;;;;;;5119930;27;19922;-68
2022/10/04 15:07:36;;;;;;;;;;;25.30;60.00;;;;;;5098842;28;19940;-69
2022/10/04 15:10:13;;;;;;;;;;;25.20;58.90;;;;;;5118942;27;19919;-68